sensor_id;sensor_type;location;lat;lon;timestamp;P1;durP1;ratioP1;P2;durP2;ratioP2
67816;SDS011;54614;47.576;7.524;2022-12-18T00:01:15;6.20;;;4.60;;
67816;SDS011;54614;47.576;7.524;2022-12-18T00:03:46;5.13;;;4.20;;
67816;SDS011;54614;47.576;7.524;2022-12-18T00:06:13;5.47;;;3.90;;
67816;SDS011;54614;47.576;7.524;2022-12-18T00:08:40;5.00;;;3.87;;
67816;SDS011;54614;47.576;7.524;2022-12-18T00:11:08;5.13;;;3.90;;
67816;SDS011;54614;47.576;7.524;2022-12-18T00:13:41;6.80;;;3.80;;
67816;SDS011;54614;47.576;7.524;2022-12-18T00:16:14;6.07;;;3.90;;
67816;SDS011;54614;47.576;7.524;2022-12-18T00:18:45;5.03;;;3.83;;
67816;SDS011;54614;47.576;7.524;2022-12-18T00:21:12;5.87;;;4.07;;
67816;SDS011;54614;47.576;7.524;2022-12-18T00:23:41;4.03;;;3.57;;
67816;SDS011;54614;47.576;7.524;2022-12-18T00:26:13;6.43;;;4.10;;
67816;SDS011;54614;47.576;7.524;2022-12-18T00:28:45;4.80;;;3.87;;
67816;SDS011;54614;47.576;7.524;2022-12-18T00:31:13;6.07;;;3.93;;
67816;SDS011;54614;47.576;7.524;2022-12-18T00:33:46;4.67;;;3.87;;
67816;SDS011;54614;47.576;7.524;2022-12-18T00:36:16;5.23;;;4.07;;
67816;SDS011;54614;47.576;7.524;2022-12-18T00:38:45;4.87;;;3.80;;
67816;SDS011;54614;47.576;7.524;2022-12-18T00:41:13;5.93;;;4.17;;
67816;SDS011;54614;47.576;7.524;2022-12-18T00:44:02;5.83;;;3.90;;
67816;SDS011;54614;47.576;7.524;2022-12-18T00:46:29;4.80;;;4.07;;
67816;SDS011;54614;47.576;7.524;2022-12-18T00:48:55;4.77;;;3.93;;
67816;SDS011;54614;47.576;7.524;2022-12-18T00:51:21;4.30;;;3.70;;
67816;SDS011;54614;47.576;7.524;2022-12-18T00:53:47;5.57;;;3.93;;
67816;SDS011;54614;47.576;7.524;2022-12-18T00:56:13;6.17;;;3.63;;
67816;SDS011;54614;47.576;7.524;2022-12-18T00:58:39;4.50;;;3.73;;
67816;SDS011;54614;47.576;7.524;2022-12-18T01:01:05;4.63;;;3.67;;
67816;SDS011;54614;47.576;7.524;2022-12-18T01:03:31;4.77;;;3.80;;
67816;SDS011;54614;47.576;7.524;2022-12-18T01:05:58;5.17;;;4.00;;
67816;SDS011;54614;47.576;7.524;2022-12-18T01:08:24;5.13;;;3.80;;
67816;SDS011;54614;47.576;7.524;2022-12-18T01:10:50;5.27;;;4.00;;
67816;SDS011;54614;47.576;7.524;2022-12-18T01:13:16;4.47;;;3.63;;
67816;SDS011;54614;47.576;7.524;2022-12-18T01:15:51;4.80;;;3.70;;
67816;SDS011;54614;47.576;7.524;2022-12-18T01:18:17;5.80;;;3.90;;
67816;SDS011;54614;47.576;7.524;2022-12-18T01:20:43;7.53;;;3.87;;
67816;SDS011;54614;47.576;7.524;2022-12-18T01:23:09;5.97;;;3.67;;
67816;SDS011;54614;47.576;7.524;2022-12-18T01:25:38;4.00;;;3.60;;
67816;SDS011;54614;47.576;7.524;2022-12-18T01:28:03;4.57;;;3.93;;
67816;SDS011;54614;47.576;7.524;2022-12-18T01:30:29;3.83;;;3.33;;
67816;SDS011;54614;47.576;7.524;2022-12-18T01:32:55;4.13;;;3.57;;
67816;SDS011;54614;47.576;7.524;2022-12-18T01:35:21;6.33;;;3.93;;
67816;SDS011;54614;47.576;7.524;2022-12-18T01:37:47;4.00;;;3.37;;
67816;SDS011;54614;47.576;7.524;2022-12-18T01:40:13;4.60;;;3.43;;
67816;SDS011;54614;47.576;7.524;2022-12-18T01:42:38;4.00;;;3.40;;
67816;SDS011;54614;47.576;7.524;2022-12-18T01:50:25;5.27;;;3.90;;
67816;SDS011;54614;47.576;7.524;2022-12-18T01:53:06;5.70;;;3.80;;
67816;SDS011;54614;47.576;7.524;2022-12-18T01:55:48;3.93;;;3.33;;
67816;SDS011;54614;47.576;7.524;2022-12-18T01:58:19;5.83;;;3.60;;
67816;SDS011;54614;47.576;7.524;2022-12-18T02:01:06;6.23;;;3.70;;
67816;SDS011;54614;47.576;7.524;2022-12-18T02:03:32;5.27;;;3.73;;
67816;SDS011;54614;47.576;7.524;2022-12-18T02:08:59;4.27;;;3.63;;
67816;SDS011;54614;47.576;7.524;2022-12-18T02:14:33;5.03;;;3.53;;
67816;SDS011;54614;47.576;7.524;2022-12-18T02:28:16;4.73;;;3.70;;
67816;SDS011;54614;47.576;7.524;2022-12-18T02:30:47;4.77;;;3.70;;
67816;SDS011;54614;47.576;7.524;2022-12-18T02:33:18;6.60;;;3.90;;
67816;SDS011;54614;47.576;7.524;2022-12-18T02:35:46;4.93;;;3.60;;
67816;SDS011;54614;47.576;7.524;2022-12-18T02:38:14;4.97;;;3.53;;
67816;SDS011;54614;47.576;7.524;2022-12-18T02:40:41;5.47;;;3.87;;
67816;SDS011;54614;47.576;7.524;2022-12-18T02:43:10;4.73;;;3.70;;
67816;SDS011;54614;47.576;7.524;2022-12-18T02:45:46;5.40;;;3.77;;
67816;SDS011;54614;47.576;7.524;2022-12-18T02:48:14;4.73;;;3.63;;
67816;SDS011;54614;47.576;7.524;2022-12-18T02:50:45;3.80;;;3.30;;
67816;SDS011;54614;47.576;7.524;2022-12-18T02:53:47;4.70;;;3.80;;
67816;SDS011;54614;47.576;7.524;2022-12-18T02:56:36;5.47;;;3.70;;
67816;SDS011;54614;47.576;7.524;2022-12-18T03:02:31;4.97;;;3.70;;
67816;SDS011;54614;47.576;7.524;2022-12-18T03:08:24;3.90;;;3.23;;
67816;SDS011;54614;47.576;7.524;2022-12-18T03:11:03;5.27;;;3.63;;
67816;SDS011;54614;47.576;7.524;2022-12-18T03:16:22;4.43;;;3.53;;
67816;SDS011;54614;47.576;7.524;2022-12-18T03:18:57;4.87;;;3.97;;
67816;SDS011;54614;47.576;7.524;2022-12-18T03:21:33;5.43;;;3.87;;
67816;SDS011;54614;47.576;7.524;2022-12-18T03:24:12;5.10;;;3.43;;
67816;SDS011;54614;47.576;7.524;2022-12-18T03:26:43;4.43;;;3.30;;
67816;SDS011;54614;47.576;7.524;2022-12-18T03:29:25;4.77;;;3.63;;
67816;SDS011;54614;47.576;7.524;2022-12-18T03:32:02;4.10;;;3.40;;
67816;SDS011;54614;47.576;7.524;2022-12-18T03:34:43;4.70;;;3.70;;
67816;SDS011;54614;47.576;7.524;2022-12-18T03:37:15;4.53;;;3.60;;
67816;SDS011;54614;47.576;7.524;2022-12-18T03:39:41;4.27;;;3.67;;
67816;SDS011;54614;47.576;7.524;2022-12-18T03:42:14;4.53;;;3.80;;
67816;SDS011;54614;47.576;7.524;2022-12-18T03:48:04;6.73;;;3.67;;
67816;SDS011;54614;47.576;7.524;2022-12-18T03:51:11;4.30;;;3.67;;
67816;SDS011;54614;47.576;7.524;2022-12-18T03:53:55;4.70;;;3.43;;
67816;SDS011;54614;47.576;7.524;2022-12-18T03:56:29;4.90;;;3.43;;
67816;SDS011;54614;47.576;7.524;2022-12-18T03:59:01;3.80;;;3.40;;
67816;SDS011;54614;47.576;7.524;2022-12-18T04:01:35;3.67;;;3.20;;
67816;SDS011;54614;47.576;7.524;2022-12-18T04:04:06;4.83;;;3.40;;
67816;SDS011;54614;47.576;7.524;2022-12-18T04:06:36;5.63;;;3.57;;
67816;SDS011;54614;47.576;7.524;2022-12-18T04:09:04;5.43;;;3.40;;
67816;SDS011;54614;47.576;7.524;2022-12-18T04:11:31;5.10;;;3.30;;
67816;SDS011;54614;47.576;7.524;2022-12-18T04:13:57;5.27;;;3.70;;
67816;SDS011;54614;47.576;7.524;2022-12-18T04:16:27;4.50;;;3.87;;
67816;SDS011;54614;47.576;7.524;2022-12-18T04:18:54;5.53;;;3.80;;
67816;SDS011;54614;47.576;7.524;2022-12-18T04:21:20;6.13;;;3.80;;
67816;SDS011;54614;47.576;7.524;2022-12-18T04:23:46;6.10;;;3.77;;
67816;SDS011;54614;47.576;7.524;2022-12-18T04:26:12;7.17;;;3.87;;
67816;SDS011;54614;47.576;7.524;2022-12-18T04:28:38;5.27;;;3.70;;
67816;SDS011;54614;47.576;7.524;2022-12-18T04:31:04;9.10;;;3.70;;
67816;SDS011;54614;47.576;7.524;2022-12-18T04:33:30;5.47;;;3.63;;
67816;SDS011;54614;47.576;7.524;2022-12-18T04:35:56;10.50;;;3.40;;
67816;SDS011;54614;47.576;7.524;2022-12-18T04:38:21;5.73;;;3.73;;
67816;SDS011;54614;47.576;7.524;2022-12-18T04:40:47;4.83;;;3.27;;
67816;SDS011;54614;47.576;7.524;2022-12-18T04:43:13;5.03;;;3.50;;
67816;SDS011;54614;47.576;7.524;2022-12-18T04:45:39;6.13;;;3.47;;
67816;SDS011;54614;47.576;7.524;2022-12-18T04:48:05;7.77;;;3.63;;
67816;SDS011;54614;47.576;7.524;2022-12-18T04:50:31;5.70;;;3.50;;
67816;SDS011;54614;47.576;7.524;2022-12-18T04:52:57;10.10;;;4.43;;
67816;SDS011;54614;47.576;7.524;2022-12-18T04:55:23;11.00;;;3.73;;
67816;SDS011;54614;47.576;7.524;2022-12-18T04:57:49;6.97;;;3.53;;
67816;SDS011;54614;47.576;7.524;2022-12-18T05:00:14;10.03;;;3.90;;
67816;SDS011;54614;47.576;7.524;2022-12-18T05:02:41;19.07;;;4.00;;
67816;SDS011;54614;47.576;7.524;2022-12-18T05:05:07;12.03;;;3.80;;
67816;SDS011;54614;47.576;7.524;2022-12-18T05:07:33;12.93;;;3.70;;
67816;SDS011;54614;47.576;7.524;2022-12-18T05:09:59;10.10;;;3.57;;
67816;SDS011;54614;47.576;7.524;2022-12-18T05:12:25;6.50;;;3.90;;
67816;SDS011;54614;47.576;7.524;2022-12-18T05:14:51;10.20;;;3.73;;
67816;SDS011;54614;47.576;7.524;2022-12-18T05:17:17;15.20;;;3.57;;
67816;SDS011;54614;47.576;7.524;2022-12-18T05:19:43;14.40;;;4.00;;
67816;SDS011;54614;47.576;7.524;2022-12-18T05:22:09;8.57;;;3.80;;
67816;SDS011;54614;47.576;7.524;2022-12-18T05:24:35;5.87;;;4.00;;
67816;SDS011;54614;47.576;7.524;2022-12-18T05:27:01;8.00;;;3.43;;
67816;SDS011;54614;47.576;7.524;2022-12-18T05:29:27;8.83;;;3.73;;
67816;SDS011;54614;47.576;7.524;2022-12-18T05:31:52;7.33;;;3.80;;
67816;SDS011;54614;47.576;7.524;2022-12-18T05:34:18;8.90;;;4.53;;
67816;SDS011;54614;47.576;7.524;2022-12-18T05:36:44;8.60;;;4.57;;
67816;SDS011;54614;47.576;7.524;2022-12-18T05:39:10;15.43;;;5.13;;
67816;SDS011;54614;47.576;7.524;2022-12-18T05:41:36;9.73;;;4.77;;
67816;SDS011;54614;47.576;7.524;2022-12-18T05:44:02;6.80;;;4.80;;
67816;SDS011;54614;47.576;7.524;2022-12-18T05:46:28;8.20;;;4.70;;
67816;SDS011;54614;47.576;7.524;2022-12-18T05:48:54;8.73;;;4.60;;
67816;SDS011;54614;47.576;7.524;2022-12-18T05:51:23;8.47;;;4.70;;
67816;SDS011;54614;47.576;7.524;2022-12-18T05:53:49;7.53;;;4.50;;
67816;SDS011;54614;47.576;7.524;2022-12-18T05:56:19;11.43;;;4.50;;
67816;SDS011;54614;47.576;7.524;2022-12-18T05:58:47;7.23;;;3.87;;
67816;SDS011;54614;47.576;7.524;2022-12-18T06:01:18;6.07;;;3.70;;
67816;SDS011;54614;47.576;7.524;2022-12-18T06:03:47;6.70;;;4.10;;
67816;SDS011;54614;47.576;7.524;2022-12-18T06:08:45;6.97;;;3.87;;
67816;SDS011;54614;47.576;7.524;2022-12-18T06:11:13;7.53;;;3.80;;
67816;SDS011;54614;47.576;7.524;2022-12-18T06:13:43;5.00;;;3.63;;
67816;SDS011;54614;47.576;7.524;2022-12-18T06:16:10;7.53;;;3.80;;
67816;SDS011;54614;47.576;7.524;2022-12-18T06:18:35;6.00;;;3.57;;
67816;SDS011;54614;47.576;7.524;2022-12-18T06:21:01;5.87;;;3.60;;
67816;SDS011;54614;47.576;7.524;2022-12-18T06:23:27;5.37;;;3.77;;
67816;SDS011;54614;47.576;7.524;2022-12-18T06:25:53;7.53;;;3.57;;
67816;SDS011;54614;47.576;7.524;2022-12-18T06:28:20;4.67;;;3.57;;
67816;SDS011;54614;47.576;7.524;2022-12-18T06:30:49;5.30;;;3.50;;
67816;SDS011;54614;47.576;7.524;2022-12-18T06:33:15;4.23;;;3.33;;
67816;SDS011;54614;47.576;7.524;2022-12-18T06:35:42;6.53;;;3.43;;
67816;SDS011;54614;47.576;7.524;2022-12-18T06:38:07;5.40;;;3.57;;
67816;SDS011;54614;47.576;7.524;2022-12-18T06:40:33;4.17;;;3.30;;
67816;SDS011;54614;47.576;7.524;2022-12-18T06:43:02;5.53;;;3.53;;
67816;SDS011;54614;47.576;7.524;2022-12-18T06:45:28;7.60;;;3.90;;
67816;SDS011;54614;47.576;7.524;2022-12-18T06:47:54;4.77;;;3.40;;
67816;SDS011;54614;47.576;7.524;2022-12-18T06:50:20;4.43;;;3.73;;
67816;SDS011;54614;47.576;7.524;2022-12-18T06:52:45;5.73;;;3.37;;
67816;SDS011;54614;47.576;7.524;2022-12-18T06:55:11;5.63;;;3.47;;
67816;SDS011;54614;47.576;7.524;2022-12-18T06:57:37;5.63;;;3.40;;
67816;SDS011;54614;47.576;7.524;2022-12-18T07:00:06;3.93;;;3.40;;
67816;SDS011;54614;47.576;7.524;2022-12-18T07:02:33;5.20;;;3.50;;
67816;SDS011;54614;47.576;7.524;2022-12-18T07:05:00;4.17;;;3.23;;
67816;SDS011;54614;47.576;7.524;2022-12-18T07:07:26;6.37;;;3.63;;
67816;SDS011;54614;47.576;7.524;2022-12-18T07:09:52;4.40;;;3.33;;
67816;SDS011;54614;47.576;7.524;2022-12-18T07:12:18;4.67;;;3.47;;
67816;SDS011;54614;47.576;7.524;2022-12-18T07:14:44;4.30;;;3.33;;
67816;SDS011;54614;47.576;7.524;2022-12-18T07:17:10;5.13;;;3.53;;
67816;SDS011;54614;47.576;7.524;2022-12-18T07:19:36;4.07;;;3.43;;
67816;SDS011;54614;47.576;7.524;2022-12-18T07:22:01;4.70;;;3.63;;
67816;SDS011;54614;47.576;7.524;2022-12-18T07:24:27;6.07;;;3.20;;
67816;SDS011;54614;47.576;7.524;2022-12-18T07:26:53;4.13;;;3.27;;
67816;SDS011;54614;47.576;7.524;2022-12-18T07:29:19;4.20;;;3.20;;
67816;SDS011;54614;47.576;7.524;2022-12-18T07:31:45;6.60;;;3.57;;
67816;SDS011;54614;47.576;7.524;2022-12-18T07:34:12;3.40;;;3.03;;
67816;SDS011;54614;47.576;7.524;2022-12-18T07:36:39;4.10;;;3.47;;
67816;SDS011;54614;47.576;7.524;2022-12-18T07:39:05;4.27;;;3.40;;
67816;SDS011;54614;47.576;7.524;2022-12-18T07:41:32;4.67;;;3.40;;
67816;SDS011;54614;47.576;7.524;2022-12-18T07:43:58;4.23;;;3.10;;
67816;SDS011;54614;47.576;7.524;2022-12-18T07:46:24;4.27;;;3.33;;
67816;SDS011;54614;47.576;7.524;2022-12-18T07:48:50;4.80;;;3.13;;
67816;SDS011;54614;47.576;7.524;2022-12-18T07:51:16;4.73;;;3.23;;
67816;SDS011;54614;47.576;7.524;2022-12-18T07:53:43;4.07;;;3.10;;
67816;SDS011;54614;47.576;7.524;2022-12-18T07:56:10;3.67;;;3.27;;
67816;SDS011;54614;47.576;7.524;2022-12-18T07:58:37;6.07;;;3.57;;
67816;SDS011;54614;47.576;7.524;2022-12-18T08:01:04;5.00;;;3.30;;
67816;SDS011;54614;47.576;7.524;2022-12-18T08:03:36;3.80;;;3.30;;
67816;SDS011;54614;47.576;7.524;2022-12-18T08:06:04;4.93;;;3.27;;
67816;SDS011;54614;47.576;7.524;2022-12-18T08:08:33;4.40;;;3.27;;
67816;SDS011;54614;47.576;7.524;2022-12-18T08:11:00;3.77;;;3.27;;
67816;SDS011;54614;47.576;7.524;2022-12-18T08:13:26;4.23;;;3.07;;
67816;SDS011;54614;47.576;7.524;2022-12-18T08:18:28;6.30;;;2.97;;
67816;SDS011;54614;47.576;7.524;2022-12-18T08:20:55;4.13;;;3.10;;
67816;SDS011;54614;47.576;7.524;2022-12-18T08:23:21;4.33;;;3.27;;
67816;SDS011;54614;47.576;7.524;2022-12-18T08:25:47;3.90;;;2.97;;
67816;SDS011;54614;47.576;7.524;2022-12-18T08:28:13;5.77;;;3.17;;
67816;SDS011;54614;47.576;7.524;2022-12-18T08:30:39;4.07;;;3.23;;
67816;SDS011;54614;47.576;7.524;2022-12-18T08:33:05;3.93;;;3.10;;
67816;SDS011;54614;47.576;7.524;2022-12-18T08:35:34;4.23;;;3.03;;
67816;SDS011;54614;47.576;7.524;2022-12-18T08:38:01;4.43;;;3.30;;
67816;SDS011;54614;47.576;7.524;2022-12-18T08:40:28;3.70;;;3.20;;
67816;SDS011;54614;47.576;7.524;2022-12-18T08:42:54;5.27;;;3.00;;
67816;SDS011;54614;47.576;7.524;2022-12-18T08:45:38;5.13;;;3.20;;
67816;SDS011;54614;47.576;7.524;2022-12-18T08:48:04;5.40;;;3.20;;
67816;SDS011;54614;47.576;7.524;2022-12-18T08:50:30;3.37;;;3.00;;
67816;SDS011;54614;47.576;7.524;2022-12-18T08:52:56;3.13;;;2.67;;
67816;SDS011;54614;47.576;7.524;2022-12-18T08:55:22;4.00;;;3.20;;
67816;SDS011;54614;47.576;7.524;2022-12-18T08:57:48;3.37;;;3.03;;
67816;SDS011;54614;47.576;7.524;2022-12-18T09:00:14;4.03;;;2.90;;
67816;SDS011;54614;47.576;7.524;2022-12-18T09:02:41;3.50;;;3.03;;
67816;SDS011;54614;47.576;7.524;2022-12-18T09:05:06;4.07;;;3.10;;
67816;SDS011;54614;47.576;7.524;2022-12-18T09:07:32;4.47;;;3.30;;
67816;SDS011;54614;47.576;7.524;2022-12-18T09:09:58;3.70;;;3.20;;
67816;SDS011;54614;47.576;7.524;2022-12-18T09:12:24;3.17;;;2.83;;
67816;SDS011;54614;47.576;7.524;2022-12-18T09:14:51;3.40;;;3.00;;
67816;SDS011;54614;47.576;7.524;2022-12-18T09:17:16;4.00;;;3.17;;
67816;SDS011;54614;47.576;7.524;2022-12-18T09:19:42;3.57;;;3.10;;
67816;SDS011;54614;47.576;7.524;2022-12-18T09:22:09;4.97;;;3.10;;
67816;SDS011;54614;47.576;7.524;2022-12-18T09:24:34;3.53;;;3.00;;
67816;SDS011;54614;47.576;7.524;2022-12-18T09:27:00;3.50;;;3.10;;
67816;SDS011;54614;47.576;7.524;2022-12-18T09:29:26;4.37;;;2.83;;
67816;SDS011;54614;47.576;7.524;2022-12-18T09:31:52;2.90;;;2.60;;
67816;SDS011;54614;47.576;7.524;2022-12-18T09:34:18;3.63;;;3.07;;
67816;SDS011;54614;47.576;7.524;2022-12-18T09:36:46;3.63;;;3.00;;
67816;SDS011;54614;47.576;7.524;2022-12-18T09:39:13;4.43;;;3.37;;
67816;SDS011;54614;47.576;7.524;2022-12-18T09:44:28;3.67;;;3.00;;
67816;SDS011;54614;47.576;7.524;2022-12-18T09:47:07;5.50;;;3.23;;
67816;SDS011;54614;47.576;7.524;2022-12-18T09:49:53;3.73;;;3.20;;
67816;SDS011;54614;47.576;7.524;2022-12-18T09:52:28;3.30;;;3.00;;
67816;SDS011;54614;47.576;7.524;2022-12-18T10:01:11;3.57;;;2.90;;
67816;SDS011;54614;47.576;7.524;2022-12-18T10:03:41;3.13;;;2.60;;
67816;SDS011;54614;47.576;7.524;2022-12-18T10:20:29;4.73;;;3.50;;
67816;SDS011;54614;47.576;7.524;2022-12-18T10:23:39;4.67;;;3.60;;
67816;SDS011;54614;47.576;7.524;2022-12-18T10:26:37;5.57;;;4.20;;
67816;SDS011;54614;47.576;7.524;2022-12-18T10:29:08;5.10;;;3.90;;
67816;SDS011;54614;47.576;7.524;2022-12-18T10:31:42;4.87;;;4.07;;
67816;SDS011;54614;47.576;7.524;2022-12-18T10:34:11;5.17;;;3.93;;
67816;SDS011;54614;47.576;7.524;2022-12-18T10:36:40;4.77;;;3.73;;
67816;SDS011;54614;47.576;7.524;2022-12-18T10:41:44;4.73;;;3.83;;
67816;SDS011;54614;47.576;7.524;2022-12-18T10:44:12;4.37;;;3.43;;
67816;SDS011;54614;47.576;7.524;2022-12-18T10:46:53;4.00;;;3.60;;
67816;SDS011;54614;47.576;7.524;2022-12-18T10:49:29;4.53;;;3.50;;
67816;SDS011;54614;47.576;7.524;2022-12-18T10:57:30;3.83;;;3.30;;
67816;SDS011;54614;47.576;7.524;2022-12-18T11:02:48;4.40;;;3.80;;
67816;SDS011;54614;47.576;7.524;2022-12-18T11:05:30;4.47;;;3.53;;
67816;SDS011;54614;47.576;7.524;2022-12-18T11:07:59;4.00;;;3.40;;
67816;SDS011;54614;47.576;7.524;2022-12-18T11:10:36;4.23;;;3.03;;
67816;SDS011;54614;47.576;7.524;2022-12-18T11:13:09;3.67;;;3.20;;
67816;SDS011;54614;47.576;7.524;2022-12-18T11:15:45;4.87;;;3.73;;
67816;SDS011;54614;47.576;7.524;2022-12-18T11:18:32;4.37;;;3.20;;
67816;SDS011;54614;47.576;7.524;2022-12-18T11:23:31;3.57;;;3.27;;
67816;SDS011;54614;47.576;7.524;2022-12-18T11:25:59;3.43;;;3.13;;
67816;SDS011;54614;47.576;7.524;2022-12-18T11:28:33;3.20;;;2.90;;
67816;SDS011;54614;47.576;7.524;2022-12-18T11:36:36;3.03;;;2.73;;
67816;SDS011;54614;47.576;7.524;2022-12-18T11:42:31;3.17;;;2.87;;
67816;SDS011;54614;47.576;7.524;2022-12-18T11:47:42;2.70;;;2.50;;
67816;SDS011;54614;47.576;7.524;2022-12-18T11:50:21;2.60;;;2.40;;
67816;SDS011;54614;47.576;7.524;2022-12-18T11:52:53;2.60;;;2.40;;
67816;SDS011;54614;47.576;7.524;2022-12-18T11:58:32;3.20;;;2.70;;
67816;SDS011;54614;47.576;7.524;2022-12-18T12:01:23;2.70;;;2.50;;
67816;SDS011;54614;47.576;7.524;2022-12-18T12:24:50;2.70;;;2.50;;
67816;SDS011;54614;47.576;7.524;2022-12-18T12:33:52;2.77;;;2.53;;
67816;SDS011;54614;47.576;7.524;2022-12-18T12:36:47;2.60;;;2.40;;
67816;SDS011;54614;47.576;7.524;2022-12-18T12:39:46;2.57;;;2.37;;
67816;SDS011;54614;47.576;7.524;2022-12-18T12:45:40;3.67;;;2.20;;
67816;SDS011;54614;47.576;7.524;2022-12-18T12:48:33;2.60;;;2.40;;
67816;SDS011;54614;47.576;7.524;2022-12-18T12:53:54;2.93;;;2.50;;
67816;SDS011;54614;47.576;7.524;2022-12-18T12:56:25;2.80;;;2.50;;
67816;SDS011;54614;47.576;7.524;2022-12-18T12:59:13;2.57;;;2.37;;
67816;SDS011;54614;47.576;7.524;2022-12-18T13:05:21;2.40;;;2.20;;
67816;SDS011;54614;47.576;7.524;2022-12-18T13:07:58;2.77;;;2.27;;
67816;SDS011;54614;47.576;7.524;2022-12-18T13:10:39;2.30;;;2.10;;
67816;SDS011;54614;47.576;7.524;2022-12-18T13:13:09;2.60;;;2.40;;
67816;SDS011;54614;47.576;7.524;2022-12-18T13:20:51;2.80;;;2.50;;
67816;SDS011;54614;47.576;7.524;2022-12-18T13:23:36;2.53;;;2.33;;
67816;SDS011;54614;47.576;7.524;2022-12-18T13:33:46;3.90;;;2.60;;
67816;SDS011;54614;47.576;7.524;2022-12-18T13:36:14;2.70;;;2.50;;
67816;SDS011;54614;47.576;7.524;2022-12-18T13:41:39;2.60;;;2.40;;
67816;SDS011;54614;47.576;7.524;2022-12-18T13:47:31;2.27;;;2.10;;
67816;SDS011;54614;47.576;7.524;2022-12-18T13:50:09;2.60;;;2.40;;
67816;SDS011;54614;47.576;7.524;2022-12-18T13:52:49;2.53;;;2.30;;
67816;SDS011;54614;47.576;7.524;2022-12-18T13:55:18;2.63;;;2.33;;
67816;SDS011;54614;47.576;7.524;2022-12-18T13:57:47;3.33;;;2.50;;
67816;SDS011;54614;47.576;7.524;2022-12-18T14:02:48;2.50;;;2.30;;
67816;SDS011;54614;47.576;7.524;2022-12-18T14:05:25;2.40;;;2.20;;
67816;SDS011;54614;47.576;7.524;2022-12-18T14:08:21;2.60;;;2.40;;
67816;SDS011;54614;47.576;7.524;2022-12-18T14:10:47;2.90;;;2.60;;
67816;SDS011;54614;47.576;7.524;2022-12-18T14:13:29;2.63;;;2.20;;
67816;SDS011;54614;47.576;7.524;2022-12-18T14:16:01;2.67;;;2.40;;
67816;SDS011;54614;47.576;7.524;2022-12-18T14:18:48;2.10;;;2.00;;
67816;SDS011;54614;47.576;7.524;2022-12-18T14:21:27;2.63;;;2.40;;
67816;SDS011;54614;47.576;7.524;2022-12-18T14:26:46;4.17;;;2.10;;
67816;SDS011;54614;47.576;7.524;2022-12-18T14:29:21;2.93;;;2.00;;
67816;SDS011;54614;47.576;7.524;2022-12-18T14:32:07;2.13;;;2.00;;
67816;SDS011;54614;47.576;7.524;2022-12-18T14:34:42;3.23;;;2.30;;
67816;SDS011;54614;47.576;7.524;2022-12-18T14:37:13;2.33;;;2.10;;
67816;SDS011;54614;47.576;7.524;2022-12-18T14:40:01;2.60;;;2.40;;
67816;SDS011;54614;47.576;7.524;2022-12-18T14:42:29;2.43;;;2.23;;
67816;SDS011;54614;47.576;7.524;2022-12-18T14:48:06;2.20;;;2.00;;
67816;SDS011;54614;47.576;7.524;2022-12-18T14:50:33;2.50;;;2.30;;
67816;SDS011;54614;47.576;7.524;2022-12-18T14:53:00;2.50;;;2.30;;
67816;SDS011;54614;47.576;7.524;2022-12-18T14:55:26;2.53;;;2.33;;
67816;SDS011;54614;47.576;7.524;2022-12-18T14:57:52;2.50;;;2.30;;
67816;SDS011;54614;47.576;7.524;2022-12-18T15:00:22;2.50;;;2.30;;
67816;SDS011;54614;47.576;7.524;2022-12-18T15:02:51;2.67;;;2.30;;
67816;SDS011;54614;47.576;7.524;2022-12-18T15:05:28;2.20;;;2.00;;
67816;SDS011;54614;47.576;7.524;2022-12-18T15:07:57;2.43;;;2.23;;
67816;SDS011;54614;47.576;7.524;2022-12-18T15:10:29;2.50;;;2.30;;
67816;SDS011;54614;47.576;7.524;2022-12-18T15:18:01;2.40;;;2.20;;
67816;SDS011;54614;47.576;7.524;2022-12-18T15:20:32;2.23;;;2.03;;
67816;SDS011;54614;47.576;7.524;2022-12-18T15:23:23;2.20;;;2.00;;
67816;SDS011;54614;47.576;7.524;2022-12-18T15:26:00;2.40;;;2.20;;
67816;SDS011;54614;47.576;7.524;2022-12-18T15:36:24;2.10;;;1.90;;
67816;SDS011;54614;47.576;7.524;2022-12-18T15:38:50;1.90;;;1.80;;
67816;SDS011;54614;47.576;7.524;2022-12-18T15:41:20;2.00;;;1.90;;
67816;SDS011;54614;47.576;7.524;2022-12-18T15:43:47;1.90;;;1.80;;
67816;SDS011;54614;47.576;7.524;2022-12-18T15:46:17;2.00;;;1.90;;
67816;SDS011;54614;47.576;7.524;2022-12-18T15:48:47;2.20;;;2.00;;
67816;SDS011;54614;47.576;7.524;2022-12-18T15:51:23;2.10;;;2.00;;
67816;SDS011;54614;47.576;7.524;2022-12-18T15:53:58;2.00;;;1.90;;
67816;SDS011;54614;47.576;7.524;2022-12-18T15:56:28;2.20;;;2.00;;
67816;SDS011;54614;47.576;7.524;2022-12-18T15:59:13;2.30;;;2.07;;
67816;SDS011;54614;47.576;7.524;2022-12-18T16:01:44;2.30;;;2.10;;
67816;SDS011;54614;47.576;7.524;2022-12-18T16:04:14;2.40;;;2.20;;
67816;SDS011;54614;47.576;7.524;2022-12-18T16:06:45;2.30;;;2.10;;
67816;SDS011;54614;47.576;7.524;2022-12-18T16:09:11;1.90;;;1.80;;
67816;SDS011;54614;47.576;7.524;2022-12-18T16:11:37;2.00;;;1.80;;
67816;SDS011;54614;47.576;7.524;2022-12-18T16:16:49;2.07;;;1.90;;
67816;SDS011;54614;47.576;7.524;2022-12-18T16:19:21;2.27;;;2.07;;
67816;SDS011;54614;47.576;7.524;2022-12-18T16:21:48;2.17;;;1.97;;
67816;SDS011;54614;47.576;7.524;2022-12-18T16:24:19;2.20;;;2.00;;
67816;SDS011;54614;47.576;7.524;2022-12-18T16:26:55;2.20;;;2.00;;
67816;SDS011;54614;47.576;7.524;2022-12-18T16:29:24;2.20;;;2.00;;
67816;SDS011;54614;47.576;7.524;2022-12-18T16:31:53;2.17;;;1.97;;
67816;SDS011;54614;47.576;7.524;2022-12-18T16:34:24;2.17;;;2.03;;
67816;SDS011;54614;47.576;7.524;2022-12-18T16:36:54;2.13;;;1.93;;
67816;SDS011;54614;47.576;7.524;2022-12-18T16:39:21;2.27;;;2.07;;
67816;SDS011;54614;47.576;7.524;2022-12-18T16:41:47;2.10;;;1.90;;
67816;SDS011;54614;47.576;7.524;2022-12-18T16:44:13;2.50;;;2.13;;
67816;SDS011;54614;47.576;7.524;2022-12-18T16:46:39;2.13;;;1.93;;
67816;SDS011;54614;47.576;7.524;2022-12-18T16:49:10;2.30;;;2.10;;
67816;SDS011;54614;47.576;7.524;2022-12-18T16:51:41;2.27;;;2.07;;
67816;SDS011;54614;47.576;7.524;2022-12-18T16:54:07;1.90;;;1.80;;
67816;SDS011;54614;47.576;7.524;2022-12-18T16:56:33;2.10;;;1.90;;
67816;SDS011;54614;47.576;7.524;2022-12-18T16:59:00;1.90;;;1.80;;
67816;SDS011;54614;47.576;7.524;2022-12-18T17:01:29;1.90;;;1.80;;
67816;SDS011;54614;47.576;7.524;2022-12-18T17:04:01;2.30;;;2.10;;
67816;SDS011;54614;47.576;7.524;2022-12-18T17:06:31;2.20;;;2.00;;
67816;SDS011;54614;47.576;7.524;2022-12-18T17:09:01;2.30;;;2.10;;
67816;SDS011;54614;47.576;7.524;2022-12-18T17:11:31;2.00;;;1.90;;
67816;SDS011;54614;47.576;7.524;2022-12-18T17:13:59;2.20;;;2.00;;
67816;SDS011;54614;47.576;7.524;2022-12-18T17:16:48;1.83;;;1.73;;
67816;SDS011;54614;47.576;7.524;2022-12-18T17:19:15;1.77;;;1.67;;
67816;SDS011;54614;47.576;7.524;2022-12-18T17:21:41;2.33;;;2.13;;
67816;SDS011;54614;47.576;7.524;2022-12-18T17:24:09;2.10;;;1.90;;
67816;SDS011;54614;47.576;7.524;2022-12-18T17:26:35;2.20;;;2.00;;
67816;SDS011;54614;47.576;7.524;2022-12-18T17:29:01;1.80;;;1.70;;
67816;SDS011;54614;47.576;7.524;2022-12-18T17:31:29;2.00;;;1.90;;
67816;SDS011;54614;47.576;7.524;2022-12-18T17:33:56;1.90;;;1.80;;
67816;SDS011;54614;47.576;7.524;2022-12-18T17:36:23;1.97;;;1.87;;
67816;SDS011;54614;47.576;7.524;2022-12-18T17:38:54;1.83;;;1.73;;
67816;SDS011;54614;47.576;7.524;2022-12-18T17:41:22;1.90;;;1.80;;
67816;SDS011;54614;47.576;7.524;2022-12-18T17:43:52;2.30;;;2.10;;
67816;SDS011;54614;47.576;7.524;2022-12-18T17:46:20;2.03;;;1.83;;
67816;SDS011;54614;47.576;7.524;2022-12-18T17:48:46;2.00;;;1.90;;
67816;SDS011;54614;47.576;7.524;2022-12-18T17:51:13;2.07;;;1.90;;
67816;SDS011;54614;47.576;7.524;2022-12-18T17:53:40;2.20;;;2.00;;
67816;SDS011;54614;47.576;7.524;2022-12-18T17:56:06;2.20;;;1.93;;
67816;SDS011;54614;47.576;7.524;2022-12-18T17:58:36;1.80;;;1.70;;